sensor_id;sensor_type;location;lat;lon;timestamp;P1;durP1;ratioP1;P2;durP2;ratioP2
16352;SDS011;8286;51.274;9.542;2023-08-21T00:02:03;8.77;;;7.30;;
16352;SDS011;8286;51.274;9.542;2023-08-21T00:04:30;11.23;;;7.22;;
16352;SDS011;8286;51.274;9.542;2023-08-21T00:06:57;13.93;;;7.50;;
16352;SDS011;8286;51.274;9.542;2023-08-21T00:09:23;10.02;;;7.65;;
16352;SDS011;8286;51.274;9.542;2023-08-21T00:11:50;11.27;;;7.20;;
16352;SDS011;8286;51.274;9.542;2023-08-21T00:14:16;11.20;;;7.07;;
16352;SDS011;8286;51.274;9.542;2023-08-21T00:16:42;11.27;;;7.82;;
16352;SDS011;8286;51.274;9.542;2023-08-21T00:19:10;10.15;;;6.88;;
16352;SDS011;8286;51.274;9.542;2023-08-21T00:21:37;10.55;;;7.30;;
16352;SDS011;8286;51.274;9.542;2023-08-21T00:24:03;14.00;;;7.57;;
16352;SDS011;8286;51.274;9.542;2023-08-21T00:26:30;9.15;;;6.90;;
16352;SDS011;8286;51.274;9.542;2023-08-21T00:28:56;12.43;;;7.88;;
16352;SDS011;8286;51.274;9.542;2023-08-21T00:31:23;15.65;;;8.63;;
16352;SDS011;8286;51.274;9.542;2023-08-21T00:33:50;10.27;;;7.50;;
16352;SDS011;8286;51.274;9.542;2023-08-21T00:36:17;12.35;;;7.90;;
16352;SDS011;8286;51.274;9.542;2023-08-21T00:38:44;9.98;;;7.10;;
16352;SDS011;8286;51.274;9.542;2023-08-21T00:41:11;8.32;;;7.18;;
16352;SDS011;8286;51.274;9.542;2023-08-21T00:43:38;11.65;;;7.07;;
16352;SDS011;8286;51.274;9.542;2023-08-21T00:46:04;11.93;;;7.13;;
16352;SDS011;8286;51.274;9.542;2023-08-21T00:48:31;11.75;;;7.20;;
16352;SDS011;8286;51.274;9.542;2023-08-21T00:50:58;8.50;;;7.15;;
16352;SDS011;8286;51.274;9.542;2023-08-21T00:53:26;10.32;;;7.15;;
16352;SDS011;8286;51.274;9.542;2023-08-21T00:55:52;11.18;;;8.23;;
16352;SDS011;8286;51.274;9.542;2023-08-21T00:58:19;7.95;;;7.13;;
16352;SDS011;8286;51.274;9.542;2023-08-21T01:00:46;10.32;;;7.28;;
16352;SDS011;8286;51.274;9.542;2023-08-21T01:03:15;11.93;;;8.75;;
16352;SDS011;8286;51.274;9.542;2023-08-21T01:05:41;11.65;;;8.55;;
16352;SDS011;8286;51.274;9.542;2023-08-21T01:08:10;14.13;;;8.40;;
16352;SDS011;8286;51.274;9.542;2023-08-21T01:10:42;12.13;;;8.85;;
16352;SDS011;8286;51.274;9.542;2023-08-21T01:13:15;13.77;;;8.55;;
16352;SDS011;8286;51.274;9.542;2023-08-21T01:15:50;11.52;;;7.30;;
16352;SDS011;8286;51.274;9.542;2023-08-21T01:18:17;12.38;;;7.82;;
16352;SDS011;8286;51.274;9.542;2023-08-21T01:20:44;12.40;;;7.65;;
16352;SDS011;8286;51.274;9.542;2023-08-21T01:23:26;8.82;;;7.05;;
16352;SDS011;8286;51.274;9.542;2023-08-21T01:25:54;10.25;;;7.65;;
16352;SDS011;8286;51.274;9.542;2023-08-21T01:28:20;9.35;;;8.38;;
16352;SDS011;8286;51.274;9.542;2023-08-21T01:30:47;11.57;;;8.10;;
16352;SDS011;8286;51.274;9.542;2023-08-21T01:33:14;11.32;;;7.72;;
16352;SDS011;8286;51.274;9.542;2023-08-21T01:35:42;14.40;;;8.02;;
16352;SDS011;8286;51.274;9.542;2023-08-21T01:38:09;13.23;;;7.97;;
16352;SDS011;8286;51.274;9.542;2023-08-21T01:40:37;12.18;;;7.65;;
16352;SDS011;8286;51.274;9.542;2023-08-21T01:43:04;10.70;;;7.85;;
16352;SDS011;8286;51.274;9.542;2023-08-21T01:45:30;8.80;;;7.78;;
16352;SDS011;8286;51.274;9.542;2023-08-21T01:47:57;10.82;;;7.60;;
16352;SDS011;8286;51.274;9.542;2023-08-21T01:50:23;11.50;;;7.93;;
16352;SDS011;8286;51.274;9.542;2023-08-21T01:52:50;15.07;;;8.07;;
16352;SDS011;8286;51.274;9.542;2023-08-21T01:55:16;10.48;;;7.47;;
16352;SDS011;8286;51.274;9.542;2023-08-21T01:57:44;10.50;;;7.50;;
16352;SDS011;8286;51.274;9.542;2023-08-21T02:00:12;10.30;;;7.15;;
16352;SDS011;8286;51.274;9.542;2023-08-21T02:02:39;9.43;;;7.30;;
16352;SDS011;8286;51.274;9.542;2023-08-21T02:05:06;10.85;;;8.02;;
16352;SDS011;8286;51.274;9.542;2023-08-21T02:07:32;9.52;;;8.00;;
16352;SDS011;8286;51.274;9.542;2023-08-21T02:09:59;13.35;;;8.88;;
16352;SDS011;8286;51.274;9.542;2023-08-21T02:12:26;9.93;;;7.10;;
16352;SDS011;8286;51.274;9.542;2023-08-21T02:14:53;10.23;;;7.50;;
16352;SDS011;8286;51.274;9.542;2023-08-21T02:17:20;11.02;;;6.88;;
16352;SDS011;8286;51.274;9.542;2023-08-21T02:19:47;10.68;;;6.60;;
16352;SDS011;8286;51.274;9.542;2023-08-21T02:22:13;8.13;;;7.30;;
16352;SDS011;8286;51.274;9.542;2023-08-21T02:24:40;8.88;;;6.72;;
16352;SDS011;8286;51.274;9.542;2023-08-21T02:27:06;9.05;;;6.85;;
16352;SDS011;8286;51.274;9.542;2023-08-21T02:29:33;14.02;;;7.47;;
16352;SDS011;8286;51.274;9.542;2023-08-21T02:32:01;8.82;;;6.60;;
16352;SDS011;8286;51.274;9.542;2023-08-21T02:34:27;8.20;;;6.57;;
16352;SDS011;8286;51.274;9.542;2023-08-21T02:36:54;8.35;;;6.43;;
16352;SDS011;8286;51.274;9.542;2023-08-21T02:39:20;9.52;;;6.57;;
16352;SDS011;8286;51.274;9.542;2023-08-21T02:41:47;7.88;;;6.38;;
16352;SDS011;8286;51.274;9.542;2023-08-21T02:44:13;8.52;;;6.10;;
16352;SDS011;8286;51.274;9.542;2023-08-21T02:46:40;6.40;;;5.80;;
16352;SDS011;8286;51.274;9.542;2023-08-21T02:49:08;9.93;;;7.00;;
16352;SDS011;8286;51.274;9.542;2023-08-21T02:51:34;10.45;;;6.18;;
16352;SDS011;8286;51.274;9.542;2023-08-21T02:54:01;6.28;;;5.65;;
16352;SDS011;8286;51.274;9.542;2023-08-21T02:56:28;8.65;;;5.93;;
16352;SDS011;8286;51.274;9.542;2023-08-21T02:58:54;8.57;;;6.35;;
16352;SDS011;8286;51.274;9.542;2023-08-21T03:01:21;8.38;;;6.30;;
16352;SDS011;8286;51.274;9.542;2023-08-21T03:03:47;8.55;;;6.70;;
16352;SDS011;8286;51.274;9.542;2023-08-21T03:06:15;10.60;;;7.35;;
16352;SDS011;8286;51.274;9.542;2023-08-21T03:08:42;8.00;;;6.70;;
16352;SDS011;8286;51.274;9.542;2023-08-21T03:11:09;8.30;;;6.70;;
16352;SDS011;8286;51.274;9.542;2023-08-21T03:13:35;8.00;;;7.15;;
16352;SDS011;8286;51.274;9.542;2023-08-21T03:16:02;9.60;;;7.28;;
16352;SDS011;8286;51.274;9.542;2023-08-21T03:18:30;8.20;;;7.13;;
16352;SDS011;8286;51.274;9.542;2023-08-21T03:20:57;12.05;;;7.40;;
16352;SDS011;8286;51.274;9.542;2023-08-21T03:23:25;9.57;;;7.20;;
16352;SDS011;8286;51.274;9.542;2023-08-21T03:25:51;12.32;;;7.03;;
16352;SDS011;8286;51.274;9.542;2023-08-21T03:28:18;8.68;;;7.03;;
16352;SDS011;8286;51.274;9.542;2023-08-21T03:30:44;9.98;;;6.93;;
16352;SDS011;8286;51.274;9.542;2023-08-21T03:33:11;11.88;;;6.95;;
16352;SDS011;8286;51.274;9.542;2023-08-21T03:35:37;9.13;;;6.63;;
16352;SDS011;8286;51.274;9.542;2023-08-21T03:38:04;8.18;;;6.68;;
16352;SDS011;8286;51.274;9.542;2023-08-21T03:40:32;7.60;;;6.78;;
16352;SDS011;8286;51.274;9.542;2023-08-21T03:42:58;8.98;;;7.43;;
16352;SDS011;8286;51.274;9.542;2023-08-21T03:45:25;10.23;;;6.88;;
16352;SDS011;8286;51.274;9.542;2023-08-21T03:47:51;8.55;;;7.57;;
16352;SDS011;8286;51.274;9.542;2023-08-21T03:50:18;9.52;;;7.50;;
16352;SDS011;8286;51.274;9.542;2023-08-21T03:52:44;10.85;;;7.53;;
16352;SDS011;8286;51.274;9.542;2023-08-21T03:55:11;8.55;;;7.18;;
16352;SDS011;8286;51.274;9.542;2023-08-21T03:57:39;9.20;;;7.65;;
16352;SDS011;8286;51.274;9.542;2023-08-21T04:00:06;10.45;;;7.82;;
16352;SDS011;8286;51.274;9.542;2023-08-21T04:02:34;12.93;;;8.07;;
16352;SDS011;8286;51.274;9.542;2023-08-21T04:05:00;9.02;;;7.35;;
16352;SDS011;8286;51.274;9.542;2023-08-21T04:07:27;8.85;;;7.18;;
16352;SDS011;8286;51.274;9.542;2023-08-21T04:09:54;12.43;;;8.48;;
16352;SDS011;8286;51.274;9.542;2023-08-21T04:12:20;10.57;;;7.70;;
16352;SDS011;8286;51.274;9.542;2023-08-21T04:14:48;8.38;;;7.15;;
16352;SDS011;8286;51.274;9.542;2023-08-21T04:17:19;9.10;;;7.38;;
16352;SDS011;8286;51.274;9.542;2023-08-21T04:19:46;11.15;;;7.85;;
16352;SDS011;8286;51.274;9.542;2023-08-21T04:22:13;11.65;;;7.32;;
16352;SDS011;8286;51.274;9.542;2023-08-21T04:24:40;11.20;;;7.28;;
16352;SDS011;8286;51.274;9.542;2023-08-21T04:27:06;19.25;;;8.40;;
16352;SDS011;8286;51.274;9.542;2023-08-21T04:29:33;11.13;;;7.18;;
16352;SDS011;8286;51.274;9.542;2023-08-21T04:32:02;8.73;;;6.72;;
16352;SDS011;8286;51.274;9.542;2023-08-21T04:34:29;14.40;;;7.03;;
16352;SDS011;8286;51.274;9.542;2023-08-21T04:36:55;12.75;;;6.18;;
16352;SDS011;8286;51.274;9.542;2023-08-21T04:39:22;9.35;;;7.03;;
16352;SDS011;8286;51.274;9.542;2023-08-21T04:41:48;7.60;;;6.05;;
16352;SDS011;8286;51.274;9.542;2023-08-21T04:44:15;9.15;;;6.05;;
16352;SDS011;8286;51.274;9.542;2023-08-21T04:46:42;6.70;;;5.78;;
16352;SDS011;8286;51.274;9.542;2023-08-21T04:49:09;9.68;;;5.97;;
16352;SDS011;8286;51.274;9.542;2023-08-21T04:51:36;9.15;;;5.45;;
16352;SDS011;8286;51.274;9.542;2023-08-21T04:54:03;12.23;;;6.50;;
16352;SDS011;8286;51.274;9.542;2023-08-21T04:56:29;8.60;;;5.55;;
16352;SDS011;8286;51.274;9.542;2023-08-21T04:58:56;8.70;;;5.95;;
16352;SDS011;8286;51.274;9.542;2023-08-21T05:01:22;8.15;;;5.20;;
16352;SDS011;8286;51.274;9.542;2023-08-21T05:03:49;7.93;;;5.22;;
16352;SDS011;8286;51.274;9.542;2023-08-21T05:06:18;7.80;;;5.97;;
16352;SDS011;8286;51.274;9.542;2023-08-21T05:08:45;7.15;;;5.38;;
16352;SDS011;8286;51.274;9.542;2023-08-21T05:11:11;7.68;;;4.90;;
16352;SDS011;8286;51.274;9.542;2023-08-21T05:13:38;10.77;;;5.95;;
16352;SDS011;8286;51.274;9.542;2023-08-21T05:16:04;9.80;;;5.68;;
16352;SDS011;8286;51.274;9.542;2023-08-21T05:18:31;9.45;;;5.47;;
16352;SDS011;8286;51.274;9.542;2023-08-21T05:20:57;10.63;;;6.32;;
16352;SDS011;8286;51.274;9.542;2023-08-21T05:23:25;10.32;;;6.15;;
16352;SDS011;8286;51.274;9.542;2023-08-21T05:25:52;7.28;;;5.47;;
16352;SDS011;8286;51.274;9.542;2023-08-21T05:28:18;7.57;;;5.30;;
16352;SDS011;8286;51.274;9.542;2023-08-21T05:30:46;9.52;;;5.43;;
16352;SDS011;8286;51.274;9.542;2023-08-21T05:33:12;9.18;;;5.47;;
16352;SDS011;8286;51.274;9.542;2023-08-21T05:35:39;9.05;;;5.63;;
16352;SDS011;8286;51.274;9.542;2023-08-21T05:38:05;9.35;;;6.25;;
16352;SDS011;8286;51.274;9.542;2023-08-21T05:40:33;6.68;;;5.97;;
16352;SDS011;8286;51.274;9.542;2023-08-21T05:43:00;12.75;;;5.55;;
16352;SDS011;8286;51.274;9.542;2023-08-21T05:45:26;9.07;;;5.70;;
16352;SDS011;8286;51.274;9.542;2023-08-21T05:47:53;6.38;;;5.63;;
16352;SDS011;8286;51.274;9.542;2023-08-21T05:50:19;7.03;;;5.20;;
16352;SDS011;8286;51.274;9.542;2023-08-21T05:52:46;10.98;;;5.97;;
16352;SDS011;8286;51.274;9.542;2023-08-21T05:55:13;7.30;;;5.78;;
16352;SDS011;8286;51.274;9.542;2023-08-21T05:57:41;8.48;;;5.20;;
16352;SDS011;8286;51.274;9.542;2023-08-21T06:00:08;9.23;;;5.70;;
16352;SDS011;8286;51.274;9.542;2023-08-21T06:02:35;6.43;;;5.00;;
16352;SDS011;8286;51.274;9.542;2023-08-21T06:05:02;9.20;;;5.45;;
16352;SDS011;8286;51.274;9.542;2023-08-21T06:07:29;8.52;;;5.57;;
16352;SDS011;8286;51.274;9.542;2023-08-21T06:09:55;8.23;;;5.57;;
16352;SDS011;8286;51.274;9.542;2023-08-21T06:12:22;8.27;;;5.25;;
16352;SDS011;8286;51.274;9.542;2023-08-21T06:14:49;6.90;;;5.32;;
16352;SDS011;8286;51.274;9.542;2023-08-21T06:17:16;7.70;;;5.88;;
16352;SDS011;8286;51.274;9.542;2023-08-21T06:19:43;8.25;;;5.93;;
16352;SDS011;8286;51.274;9.542;2023-08-21T06:22:10;9.63;;;5.78;;
16352;SDS011;8286;51.274;9.542;2023-08-21T06:24:36;11.18;;;4.65;;
16352;SDS011;8286;51.274;9.542;2023-08-21T06:27:03;9.75;;;5.40;;
16352;SDS011;8286;51.274;9.542;2023-08-21T06:29:29;7.18;;;4.65;;
16352;SDS011;8286;51.274;9.542;2023-08-21T06:31:57;7.65;;;3.90;;
16352;SDS011;8286;51.274;9.542;2023-08-21T06:34:24;6.45;;;3.30;;
16352;SDS011;8286;51.274;9.542;2023-08-21T06:36:50;5.00;;;4.30;;
16352;SDS011;8286;51.274;9.542;2023-08-21T06:39:17;5.82;;;3.80;;
16352;SDS011;8286;51.274;9.542;2023-08-21T06:41:43;6.60;;;3.65;;
16352;SDS011;8286;51.274;9.542;2023-08-21T06:44:10;4.30;;;3.95;;
16352;SDS011;8286;51.274;9.542;2023-08-21T06:46:36;4.13;;;3.40;;
16352;SDS011;8286;51.274;9.542;2023-08-21T06:49:04;4.47;;;3.70;;
16352;SDS011;8286;51.274;9.542;2023-08-21T06:51:30;3.38;;;3.08;;
16352;SDS011;8286;51.274;9.542;2023-08-21T06:53:57;4.72;;;4.10;;
16352;SDS011;8286;51.274;9.542;2023-08-21T06:56:24;4.78;;;2.65;;
16352;SDS011;8286;51.274;9.542;2023-08-21T06:58:50;3.58;;;3.25;;
16352;SDS011;8286;51.274;9.542;2023-08-21T07:01:17;3.33;;;2.40;;
16352;SDS011;8286;51.274;9.542;2023-08-21T07:03:43;5.05;;;3.03;;
16352;SDS011;8286;51.274;9.542;2023-08-21T07:06:11;3.50;;;3.22;;
16352;SDS011;8286;51.274;9.542;2023-08-21T07:08:38;3.97;;;3.00;;
16352;SDS011;8286;51.274;9.542;2023-08-21T07:11:05;5.40;;;3.40;;
16352;SDS011;8286;51.274;9.542;2023-08-21T07:13:33;4.00;;;3.28;;
16352;SDS011;8286;51.274;9.542;2023-08-21T07:15:59;4.00;;;3.00;;
16352;SDS011;8286;51.274;9.542;2023-08-21T07:18:27;4.75;;;2.28;;
16352;SDS011;8286;51.274;9.542;2023-08-21T07:20:54;4.38;;;3.08;;
16352;SDS011;8286;51.274;9.542;2023-08-21T07:23:22;4.80;;;3.10;;
16352;SDS011;8286;51.274;9.542;2023-08-21T07:25:48;5.05;;;2.50;;
16352;SDS011;8286;51.274;9.542;2023-08-21T07:28:15;5.28;;;2.88;;
16352;SDS011;8286;51.274;9.542;2023-08-21T07:30:41;3.95;;;2.40;;
16352;SDS011;8286;51.274;9.542;2023-08-21T07:33:07;3.58;;;3.28;;
16352;SDS011;8286;51.274;9.542;2023-08-21T07:35:34;3.10;;;2.90;;
16352;SDS011;8286;51.274;9.542;2023-08-21T07:38:01;3.70;;;3.03;;
16352;SDS011;8286;51.274;9.542;2023-08-21T07:40:28;3.47;;;2.60;;
16352;SDS011;8286;51.274;9.542;2023-08-21T07:42:55;3.53;;;2.83;;
16352;SDS011;8286;51.274;9.542;2023-08-21T07:45:22;5.25;;;3.00;;
16352;SDS011;8286;51.274;9.542;2023-08-21T07:47:48;4.72;;;2.85;;
16352;SDS011;8286;51.274;9.542;2023-08-21T07:50:15;5.38;;;3.40;;
16352;SDS011;8286;51.274;9.542;2023-08-21T07:52:41;4.10;;;3.20;;
16352;SDS011;8286;51.274;9.542;2023-08-21T07:55:08;3.78;;;3.17;;
16352;SDS011;8286;51.274;9.542;2023-08-21T07:57:36;3.92;;;3.53;;
16352;SDS011;8286;51.274;9.542;2023-08-21T08:00:03;3.10;;;2.80;;
16352;SDS011;8286;51.274;9.542;2023-08-21T08:02:33;3.65;;;2.60;;
16352;SDS011;8286;51.274;9.542;2023-08-21T08:04:59;2.85;;;2.65;;
16352;SDS011;8286;51.274;9.542;2023-08-21T08:07:26;3.50;;;2.85;;
16352;SDS011;8286;51.274;9.542;2023-08-21T08:09:53;4.60;;;3.17;;
16352;SDS011;8286;51.274;9.542;2023-08-21T08:12:19;3.55;;;3.05;;
16352;SDS011;8286;51.274;9.542;2023-08-21T08:14:47;5.97;;;3.20;;
16352;SDS011;8286;51.274;9.542;2023-08-21T08:17:13;3.33;;;3.13;;
16352;SDS011;8286;51.274;9.542;2023-08-21T08:19:40;6.45;;;3.70;;
16352;SDS011;8286;51.274;9.542;2023-08-21T08:22:06;3.50;;;3.03;;
16352;SDS011;8286;51.274;9.542;2023-08-21T08:24:32;3.10;;;2.70;;
16352;SDS011;8286;51.274;9.542;2023-08-21T08:26:59;4.88;;;2.95;;
16352;SDS011;8286;51.274;9.542;2023-08-21T08:29:26;3.55;;;2.80;;
16352;SDS011;8286;51.274;9.542;2023-08-21T08:31:54;3.40;;;3.10;;
16352;SDS011;8286;51.274;9.542;2023-08-21T08:34:20;3.55;;;2.88;;
16352;SDS011;8286;51.274;9.542;2023-08-21T08:36:47;3.42;;;3.10;;
16352;SDS011;8286;51.274;9.542;2023-08-21T08:39:14;7.10;;;3.92;;
16352;SDS011;8286;51.274;9.542;2023-08-21T08:41:43;3.70;;;3.40;;
16352;SDS011;8286;51.274;9.542;2023-08-21T08:44:15;7.35;;;3.35;;
16352;SDS011;8286;51.274;9.542;2023-08-21T08:46:43;5.68;;;3.08;;
16352;SDS011;8286;51.274;9.542;2023-08-21T08:49:11;4.57;;;3.28;;
16352;SDS011;8286;51.274;9.542;2023-08-21T08:51:37;4.95;;;3.50;;
16352;SDS011;8286;51.274;9.542;2023-08-21T08:54:04;3.65;;;3.35;;
16352;SDS011;8286;51.274;9.542;2023-08-21T08:56:31;3.70;;;3.28;;
16352;SDS011;8286;51.274;9.542;2023-08-21T08:58:57;4.10;;;3.70;;
16352;SDS011;8286;51.274;9.542;2023-08-21T09:01:23;6.93;;;3.30;;
16352;SDS011;8286;51.274;9.542;2023-08-21T09:03:50;4.25;;;3.42;;
16352;SDS011;8286;51.274;9.542;2023-08-21T09:06:18;5.32;;;3.33;;
16352;SDS011;8286;51.274;9.542;2023-08-21T09:08:52;3.20;;;2.90;;
16352;SDS011;8286;51.274;9.542;2023-08-21T09:11:19;6.13;;;3.67;;
16352;SDS011;8286;51.274;9.542;2023-08-21T09:13:46;6.40;;;3.42;;
16352;SDS011;8286;51.274;9.542;2023-08-21T09:16:15;4.38;;;4.07;;
16352;SDS011;8286;51.274;9.542;2023-08-21T09:18:46;7.45;;;4.00;;
16352;SDS011;8286;51.274;9.542;2023-08-21T09:21:15;6.90;;;3.67;;
16352;SDS011;8286;51.274;9.542;2023-08-21T09:23:43;3.88;;;3.58;;
16352;SDS011;8286;51.274;9.542;2023-08-21T09:26:11;9.80;;;4.00;;
16352;SDS011;8286;51.274;9.542;2023-08-21T09:28:37;7.20;;;3.58;;
16352;SDS011;8286;51.274;9.542;2023-08-21T09:31:04;5.95;;;3.55;;
16352;SDS011;8286;51.274;9.542;2023-08-21T09:33:30;3.80;;;3.40;;
16352;SDS011;8286;51.274;9.542;2023-08-21T09:35:57;4.25;;;3.58;;
16352;SDS011;8286;51.274;9.542;2023-08-21T09:38:25;7.43;;;3.42;;
16352;SDS011;8286;51.274;9.542;2023-08-21T09:40:54;8.30;;;4.07;;
16352;SDS011;8286;51.274;9.542;2023-08-21T09:43:21;4.93;;;3.42;;
16352;SDS011;8286;51.274;9.542;2023-08-21T09:45:49;5.80;;;4.07;;
16352;SDS011;8286;51.274;9.542;2023-08-21T09:48:17;6.28;;;3.47;;
16352;SDS011;8286;51.274;9.542;2023-08-21T09:50:44;4.10;;;3.63;;
16352;SDS011;8286;51.274;9.542;2023-08-21T09:53:12;5.85;;;3.50;;
16352;SDS011;8286;51.274;9.542;2023-08-21T09:55:38;4.35;;;3.95;;
16352;SDS011;8286;51.274;9.542;2023-08-21T09:58:07;4.43;;;3.40;;
16352;SDS011;8286;51.274;9.542;2023-08-21T10:00:35;5.38;;;3.88;;
16352;SDS011;8286;51.274;9.542;2023-08-21T10:03:03;6.03;;;3.70;;
16352;SDS011;8286;51.274;9.542;2023-08-21T10:05:31;4.45;;;3.38;;
16352;SDS011;8286;51.274;9.542;2023-08-21T10:07:59;6.50;;;4.07;;
16352;SDS011;8286;51.274;9.542;2023-08-21T10:10:28;4.38;;;3.95;;
16352;SDS011;8286;51.274;9.542;2023-08-21T10:12:55;7.55;;;4.10;;
16352;SDS011;8286;51.274;9.542;2023-08-21T10:15:23;4.20;;;3.58;;
16352;SDS011;8286;51.274;9.542;2023-08-21T10:17:50;4.05;;;3.83;;
16352;SDS011;8286;51.274;9.542;2023-08-21T10:20:20;4.57;;;4.13;;
16352;SDS011;8286;51.274;9.542;2023-08-21T10:22:48;4.38;;;3.42;;
16352;SDS011;8286;51.274;9.542;2023-08-21T10:25:16;5.70;;;4.00;;
16352;SDS011;8286;51.274;9.542;2023-08-21T10:27:45;3.80;;;3.50;;
16352;SDS011;8286;51.274;9.542;2023-08-21T10:30:13;6.78;;;4.00;;
16352;SDS011;8286;51.274;9.542;2023-08-21T10:32:45;5.05;;;4.20;;
16352;SDS011;8286;51.274;9.542;2023-08-21T10:35:17;4.00;;;3.65;;
16352;SDS011;8286;51.274;9.542;2023-08-21T10:40:37;4.55;;;4.15;;
16352;SDS011;8286;51.274;9.542;2023-08-21T10:43:04;6.55;;;3.90;;
16352;SDS011;8286;51.274;9.542;2023-08-21T10:45:30;4.97;;;4.53;;
16352;SDS011;8286;51.274;9.542;2023-08-21T10:47:58;6.03;;;4.50;;
16352;SDS011;8286;51.274;9.542;2023-08-21T10:50:25;4.25;;;3.85;;
16352;SDS011;8286;51.274;9.542;2023-08-21T10:52:52;5.70;;;4.57;;
16352;SDS011;8286;51.274;9.542;2023-08-21T10:55:19;5.47;;;3.72;;
16352;SDS011;8286;51.274;9.542;2023-08-21T10:57:47;4.50;;;4.07;;
16352;SDS011;8286;51.274;9.542;2023-08-21T11:00:14;7.18;;;4.22;;
16352;SDS011;8286;51.274;9.542;2023-08-21T11:02:43;4.70;;;4.20;;
16352;SDS011;8286;51.274;9.542;2023-08-21T11:05:12;6.88;;;4.40;;
16352;SDS011;8286;51.274;9.542;2023-08-21T11:07:39;4.70;;;4.40;;
16352;SDS011;8286;51.274;9.542;2023-08-21T11:10:09;4.80;;;4.22;;
16352;SDS011;8286;51.274;9.542;2023-08-21T11:12:37;5.05;;;4.28;;
16352;SDS011;8286;51.274;9.542;2023-08-21T11:15:05;5.80;;;4.20;;
16352;SDS011;8286;51.274;9.542;2023-08-21T11:17:32;4.97;;;4.35;;
16352;SDS011;8286;51.274;9.542;2023-08-21T11:20:00;4.82;;;4.40;;
16352;SDS011;8286;51.274;9.542;2023-08-21T11:22:31;5.13;;;4.72;;
16352;SDS011;8286;51.274;9.542;2023-08-21T11:24:58;4.55;;;4.15;;
16352;SDS011;8286;51.274;9.542;2023-08-21T11:27:24;4.70;;;4.28;;
16352;SDS011;8286;51.274;9.542;2023-08-21T11:29:51;4.50;;;4.10;;
16352;SDS011;8286;51.274;9.542;2023-08-21T11:32:18;4.95;;;4.45;;
16352;SDS011;8286;51.274;9.542;2023-08-21T11:34:47;4.65;;;3.90;;
16352;SDS011;8286;51.274;9.542;2023-08-21T11:37:15;3.92;;;3.63;;
16352;SDS011;8286;51.274;9.542;2023-08-21T11:39:44;4.32;;;3.97;;
16352;SDS011;8286;51.274;9.542;2023-08-21T11:42:15;6.63;;;3.92;;
16352;SDS011;8286;51.274;9.542;2023-08-21T11:44:42;5.35;;;4.43;;
16352;SDS011;8286;51.274;9.542;2023-08-21T11:47:10;4.35;;;3.95;;
16352;SDS011;8286;51.274;9.542;2023-08-21T11:49:37;4.40;;;4.00;;
16352;SDS011;8286;51.274;9.542;2023-08-21T11:52:04;5.28;;;3.75;;
16352;SDS011;8286;51.274;9.542;2023-08-21T11:54:33;4.47;;;4.07;;
16352;SDS011;8286;51.274;9.542;2023-08-21T11:57:04;4.32;;;3.97;;
16352;SDS011;8286;51.274;9.542;2023-08-21T11:59:31;4.13;;;3.67;;
16352;SDS011;8286;51.274;9.542;2023-08-21T12:01:58;4.35;;;3.95;;
16352;SDS011;8286;51.274;9.542;2023-08-21T12:04:24;4.53;;;3.40;;
16352;SDS011;8286;51.274;9.542;2023-08-21T12:06:52;4.35;;;3.70;;
16352;SDS011;8286;51.274;9.542;2023-08-21T12:09:19;4.25;;;3.60;;
16352;SDS011;8286;51.274;9.542;2023-08-21T12:11:45;4.90;;;4.20;;
16352;SDS011;8286;51.274;9.542;2023-08-21T12:14:13;6.25;;;3.78;;
16352;SDS011;8286;51.274;9.542;2023-08-21T12:16:39;3.65;;;3.35;;
16352;SDS011;8286;51.274;9.542;2023-08-21T12:19:06;4.20;;;3.10;;
16352;SDS011;8286;51.274;9.542;2023-08-21T12:21:34;4.00;;;3.70;;
16352;SDS011;8286;51.274;9.542;2023-08-21T12:24:03;5.65;;;3.88;;
16352;SDS011;8286;51.274;9.542;2023-08-21T12:26:30;4.30;;;3.88;;
16352;SDS011;8286;51.274;9.542;2023-08-21T12:28:56;4.63;;;3.60;;
16352;SDS011;8286;51.274;9.542;2023-08-21T12:31:24;5.03;;;3.67;;
16352;SDS011;8286;51.274;9.542;2023-08-21T12:33:50;4.15;;;3.78;;
16352;SDS011;8286;51.274;9.542;2023-08-21T12:36:17;3.75;;;3.53;;
16352;SDS011;8286;51.274;9.542;2023-08-21T12:38:44;4.40;;;4.03;;
16352;SDS011;8286;51.274;9.542;2023-08-21T12:41:11;4.85;;;3.67;;
16352;SDS011;8286;51.274;9.542;2023-08-21T12:43:37;7.07;;;3.40;;
16352;SDS011;8286;51.274;9.542;2023-08-21T12:46:04;3.53;;;3.13;;
16352;SDS011;8286;51.274;9.542;2023-08-21T12:48:32;5.13;;;3.58;;
16352;SDS011;8286;51.274;9.542;2023-08-21T12:50:59;5.30;;;3.15;;
16352;SDS011;8286;51.274;9.542;2023-08-21T12:53:25;5.43;;;3.10;;
16352;SDS011;8286;51.274;9.542;2023-08-21T12:55:52;3.88;;;3.58;;
16352;SDS011;8286;51.274;9.542;2023-08-21T12:58:18;5.22;;;3.30;;
16352;SDS011;8286;51.274;9.542;2023-08-21T13:00:44;3.88;;;3.45;;
16352;SDS011;8286;51.274;9.542;2023-08-21T13:03:11;3.35;;;3.13;;
16352;SDS011;8286;51.274;9.542;2023-08-21T13:05:39;5.95;;;3.75;;
16352;SDS011;8286;51.274;9.542;2023-08-21T13:08:05;4.25;;;3.72;;
16352;SDS011;8286;51.274;9.542;2023-08-21T13:10:32;3.50;;;3.15;;
16352;SDS011;8286;51.274;9.542;2023-08-21T13:12:58;3.97;;;3.55;;
16352;SDS011;8286;51.274;9.542;2023-08-21T13:15:25;4.30;;;3.60;;
16352;SDS011;8286;51.274;9.542;2023-08-21T13:17:51;4.03;;;3.47;;
16352;SDS011;8286;51.274;9.542;2023-08-21T13:20:18;3.63;;;3.30;;
16352;SDS011;8286;51.274;9.542;2023-08-21T13:22:46;4.65;;;3.30;;
16352;SDS011;8286;51.274;9.542;2023-08-21T13:25:13;5.82;;;3.88;;
16352;SDS011;8286;51.274;9.542;2023-08-21T13:27:40;4.07;;;3.17;;
16352;SDS011;8286;51.274;9.542;2023-08-21T13:30:07;3.97;;;3.22;;
16352;SDS011;8286;51.274;9.542;2023-08-21T13:32:34;4.47;;;3.08;;
16352;SDS011;8286;51.274;9.542;2023-08-21T13:35:01;3.90;;;3.60;;
16352;SDS011;8286;51.274;9.542;2023-08-21T13:37:29;4.55;;;3.38;;
16352;SDS011;8286;51.274;9.542;2023-08-21T13:39:57;4.20;;;3.78;;
16352;SDS011;8286;51.274;9.542;2023-08-21T13:42:25;7.07;;;3.58;;
16352;SDS011;8286;51.274;9.542;2023-08-21T13:44:55;3.97;;;3.67;;
16352;SDS011;8286;51.274;9.542;2023-08-21T13:47:22;3.38;;;3.13;;
16352;SDS011;8286;51.274;9.542;2023-08-21T13:49:48;3.78;;;3.47;;
16352;SDS011;8286;51.274;9.542;2023-08-21T13:52:15;4.32;;;3.92;;
16352;SDS011;8286;51.274;9.542;2023-08-21T13:54:41;4.95;;;3.20;;
16352;SDS011;8286;51.274;9.542;2023-08-21T13:57:09;4.40;;;3.35;;
16352;SDS011;8286;51.274;9.542;2023-08-21T13:59:36;3.60;;;3.28;;
16352;SDS011;8286;51.274;9.542;2023-08-21T14:02:02;3.40;;;3.10;;
16352;SDS011;8286;51.274;9.542;2023-08-21T14:04:29;3.83;;;3.45;;
16352;SDS011;8286;51.274;9.542;2023-08-21T14:06:58;6.38;;;3.30;;
16352;SDS011;8286;51.274;9.542;2023-08-21T14:09:24;3.53;;;3.33;;
16352;SDS011;8286;51.274;9.542;2023-08-21T14:11:51;7.22;;;3.50;;
16352;SDS011;8286;51.274;9.542;2023-08-21T14:14:18;5.47;;;3.50;;
16352;SDS011;8286;51.274;9.542;2023-08-21T14:16:45;3.78;;;3.25;;
16352;SDS011;8286;51.274;9.542;2023-08-21T14:19:11;3.50;;;3.20;;
16352;SDS011;8286;51.274;9.542;2023-08-21T14:21:39;3.97;;;3.33;;
16352;SDS011;8286;51.274;9.542;2023-08-21T14:24:05;3.58;;;3.30;;
16352;SDS011;8286;51.274;9.542;2023-08-21T14:26:32;4.13;;;3.72;;
16352;SDS011;8286;51.274;9.542;2023-08-21T14:28:59;4.45;;;3.17;;
16352;SDS011;8286;51.274;9.542;2023-08-21T14:31:27;4.03;;;3.30;;
16352;SDS011;8286;51.274;9.542;2023-08-21T14:33:53;4.30;;;3.40;;
16352;SDS011;8286;51.274;9.542;2023-08-21T14:36:20;5.07;;;3.30;;
16352;SDS011;8286;51.274;9.542;2023-08-21T14:38:46;3.70;;;3.25;;
16352;SDS011;8286;51.274;9.542;2023-08-21T14:41:13;5.35;;;3.78;;
16352;SDS011;8286;51.274;9.542;2023-08-21T14:43:39;4.88;;;3.60;;
16352;SDS011;8286;51.274;9.542;2023-08-21T14:46:05;3.65;;;3.35;;
16352;SDS011;8286;51.274;9.542;2023-08-21T14:48:33;4.20;;;3.80;;
16352;SDS011;8286;51.274;9.542;2023-08-21T14:51:00;6.93;;;3.72;;
16352;SDS011;8286;51.274;9.542;2023-08-21T14:53:26;3.88;;;3.47;;
16352;SDS011;8286;51.274;9.542;2023-08-21T14:55:53;6.38;;;3.25;;
16352;SDS011;8286;51.274;9.542;2023-08-21T14:58:19;5.03;;;3.35;;
16352;SDS011;8286;51.274;9.542;2023-08-21T15:00:46;3.92;;;3.53;;